Time;durP1;ratioP1;P1;durP2;ratioP2;P2;SDS_P1;SDS_P2;PMS_P1;PMS_P2;Temp;Humidity;BMP_temperature;BMP_pressure;BME280_temperature;BME280_humidity;BME280_pressure;Samples;Min_cycle;Max_cycle;Signal;HPM_P1;HPM_P2
2022/07/07 00:01:33;;;;;;;5.97;2.70;;;;;;;-145.69;100.00;72268.06;5073369;28;20206;-79
2022/07/07 00:04:01;;;;;;;6.40;2.80;;;;;;;-145.69;100.00;72266.09;5073752;28;20256;-79
2022/07/07 00:06:28;;;;;;;8.53;2.87;;;;;;;-145.69;100.00;72262.09;5073521;28;20198;-79
2022/07/07 00:08:54;;;;;;;4.77;2.13;;;;;;;-145.69;100.00;72266.09;5073421;28;20209;-79
2022/07/07 00:11:22;;;;;;;13.80;3.13;;;;;;;-145.69;100.00;72270.06;5073071;28;20194;-79
2022/07/07 00:13:49;;;;;;;3.13;2.37;;;;;;;-145.69;100.00;72291.97;5073255;28;20222;-79
2022/07/07 00:16:15;;;;;;;8.33;2.83;;;;;;;-145.69;100.00;72291.97;5073384;28;20665;-79
2022/07/07 00:18:42;;;;;;;8.10;2.60;;;;;;;-145.69;100.00;72293.94;5073711;28;20222;-79
2022/07/07 00:21:09;;;;;;;7.85;2.80;;;;;;;-145.69;100.00;72303.91;5073710;28;20496;-79
2022/07/07 00:23:36;;;;;;;4.60;3.20;;;;;;;-145.69;100.00;72305.91;5073428;28;20207;-79
2022/07/07 00:26:02;;;;;;;6.80;2.23;;;;;;;-145.69;100.00;72291.97;5073315;28;20199;-79
2022/07/07 00:28:31;;;;;;;5.33;3.03;;;;;;;-145.69;100.00;72289.97;5072855;28;20206;-79
2022/07/07 00:30:57;;;;;;;6.87;2.47;;;;;;;-145.69;100.00;72293.94;5072949;28;20222;-79
2022/07/07 00:33:24;;;;;;;7.87;2.37;;;;;;;-145.69;100.00;72289.97;5073133;28;20206;-79
2022/07/07 00:35:51;;;;;;;3.40;2.40;;;;;;;-145.69;100.00;72280.03;5073145;28;20202;-79
2022/07/07 00:38:17;;;;;;;6.77;2.70;;;;;;;-145.69;100.00;72274.06;5065313;28;20207;-79
2022/07/07 00:40:44;;;;;;;4.87;2.43;;;;;;;-145.69;100.00;72274.06;5070762;28;20190;-80
2022/07/07 00:43:10;;;;;;;6.53;2.50;;;;;;;-145.69;100.00;72282.00;5072823;28;20203;-79
2022/07/07 00:45:38;;;;;;;5.90;2.30;;;;;;;-145.69;100.00;72289.97;5072817;28;20210;-79
2022/07/07 00:48:05;;;;;;;2.87;2.10;;;;;;;-145.69;100.00;72297.94;5073049;28;20202;-80
2022/07/07 00:50:32;;;;;;;4.10;2.50;;;;;;;-145.69;100.00;72309.88;5072667;28;20242;-79
2022/07/07 00:52:58;;;;;;;8.90;2.40;;;;;;;-145.69;100.00;72311.88;5072378;28;20214;-79
2022/07/07 00:55:25;;;;;;;4.70;2.60;;;;;;;-145.69;100.00;72309.88;5072857;28;20227;-79
2022/07/07 00:57:51;;;;;;;10.77;2.43;;;;;;;-145.69;100.00;72317.84;5072955;28;20195;-81
2022/07/07 01:00:18;;;;;;;8.70;2.33;;;;;;;-145.69;100.00;72321.81;5072535;28;20206;-80
2022/07/07 01:02:45;;;;;;;9.87;2.83;;;;;;;-145.69;100.00;72325.81;5072632;28;20197;-80
2022/07/07 01:05:12;;;;;;;12.37;2.40;;;;;;;-145.69;100.00;72325.81;5072579;28;20779;-80
2022/07/07 01:07:39;;;;;;;5.77;2.60;;;;;;;-145.69;100.00;72321.81;5072430;28;20198;-79
2022/07/07 01:10:07;;;;;;;5.67;2.50;;;;;;;-145.69;100.00;72325.81;5072492;28;20584;-80
2022/07/07 01:12:35;;;;;;;5.87;2.77;;;;;;;-145.69;100.00;72323.81;5072497;28;20699;-80
2022/07/07 01:15:01;;;;;;;4.50;2.37;;;;;;;-145.69;100.00;72329.78;5072631;28;20233;-79
2022/07/07 01:17:28;;;;;;;4.70;2.40;;;;;;;-145.69;100.00;72331.78;5072354;28;20198;-79
2022/07/07 01:19:56;;;;;;;6.03;2.87;;;;;;;-145.69;100.00;72325.81;5072563;28;20199;-79
2022/07/07 01:22:25;;;;;;;4.60;2.30;;;;;;;-145.69;100.00;72327.78;5072582;28;20194;-79
2022/07/07 01:24:53;;;;;;;5.00;2.63;;;;;;;-145.69;100.00;72329.78;5072660;28;20222;-79
2022/07/07 01:27:20;;;;;;;6.63;2.65;;;;;;;-145.69;100.00;72329.78;5071258;28;20438;-79
2022/07/07 01:29:49;;;;;;;5.43;2.63;;;;;;;-145.69;100.00;72331.78;5072084;28;20198;-79
2022/07/07 01:32:16;;;;;;;4.37;2.67;;;;;;;-145.69;100.00;72321.81;5072529;28;20202;-78
2022/07/07 01:34:44;;;;;;;5.50;3.00;;;;;;;-145.69;100.00;72325.81;5071400;28;20231;-78
2022/07/07 01:37:11;;;;;;;5.23;2.30;;;;;;;-145.69;100.00;72317.84;5070419;28;20203;-79
2022/07/07 01:39:38;;;;;;;4.23;2.10;;;;;;;-145.69;100.00;72315.84;5072268;28;20203;-80
2022/07/07 01:42:07;;;;;;;3.43;2.27;;;;;;;-145.69;100.00;72309.88;5072198;28;20553;-79
2022/07/07 01:44:34;;;;;;;6.70;2.60;;;;;;;-145.69;100.00;72301.91;5071725;28;20206;-78
2022/07/07 01:47:01;;;;;;;8.03;2.27;;;;;;;-145.69;100.00;72293.94;5072321;28;20210;-79
2022/07/07 01:49:30;;;;;;;7.33;2.40;;;;;;;-145.69;100.00;72291.97;5072242;28;20234;-78
2022/07/07 01:51:57;;;;;;;3.03;2.50;;;;;;;-145.69;100.00;72286.00;5072104;28;20682;-79
2022/07/07 01:54:23;;;;;;;9.20;3.33;;;;;;;-145.69;100.00;72282.00;5071703;28;20222;-79
2022/07/07 01:56:49;;;;;;;5.67;2.60;;;;;;;-145.69;100.00;72282.00;5072013;28;20481;-80
2022/07/07 01:59:17;;;;;;;4.17;2.63;;;;;;;-145.69;100.00;72272.06;5075964;28;20649;-79
2022/07/07 02:01:44;;;;;;;4.67;2.23;;;;;;;-145.69;100.00;72260.13;5075856;28;20202;-79
2022/07/07 02:04:10;;;;;;;3.37;2.23;;;;;;;-145.69;100.00;72258.13;5075737;28;20608;-79
2022/07/07 02:06:38;;;;;;;8.47;2.90;;;;;;;-145.69;100.00;72252.16;5075326;28;20205;-79
2022/07/07 02:09:05;;;;;;;8.87;2.27;;;;;;;-145.69;100.00;72252.16;5075919;28;20199;-79
2022/07/07 02:11:31;;;;;;;3.83;2.43;;;;;;;-145.69;100.00;72250.16;5075900;28;20194;-79
2022/07/07 02:13:58;;;;;;;5.70;2.30;;;;;;;-145.69;100.00;72248.19;5075558;28;20194;-79
2022/07/07 02:16:26;;;;;;;7.60;2.60;;;;;;;-145.69;100.00;72246.19;5075181;28;20199;-80
2022/07/07 02:18:55;;;;;;;4.33;1.97;;;;;;;-145.69;100.00;72246.19;5075340;28;20214;-80
2022/07/07 02:21:22;;;;;;;5.18;2.50;;;;;;;-145.69;100.00;72260.13;5075117;28;20438;-79
2022/07/07 02:23:50;;;;;;;5.40;2.43;;;;;;;-145.69;100.00;72278.03;5075075;28;20684;-79
2022/07/07 02:26:17;;;;;;;5.73;2.27;;;;;;;-145.69;100.00;72282.00;5075635;28;20209;-79
2022/07/07 02:28:44;;;;;;;10.03;2.83;;;;;;;-145.69;100.00;72286.00;5075220;28;20702;-79
2022/07/07 02:31:12;;;;;;;5.80;2.30;;;;;;;-145.69;100.00;72289.97;5075401;28;20226;-79
2022/07/07 02:33:40;;;;;;;5.53;2.33;;;;;;;-145.69;100.00;72297.94;5075054;28;20228;-78
2022/07/07 02:36:07;;;;;;;5.53;2.73;;;;;;;-145.69;100.00;72301.91;5075257;28;20230;-78
2022/07/07 02:38:36;;;;;;;3.73;2.23;;;;;;;-145.69;100.00;72295.94;5075339;28;20202;-79
2022/07/07 02:41:03;;;;;;;4.10;2.33;;;;;;;-145.69;100.00;72301.91;5075189;28;20286;-79
2022/07/07 02:43:30;;;;;;;12.27;3.00;;;;;;;-145.69;100.00;72301.91;5074769;28;20531;-79
2022/07/07 02:45:57;;;;;;;5.17;2.43;;;;;;;-145.69;100.00;72301.91;5074313;28;20209;-79
2022/07/07 02:48:26;;;;;;;5.80;2.50;;;;;;;-145.69;100.00;72313.84;5073350;28;20203;-79
2022/07/07 02:50:55;;;;;;;6.67;2.60;;;;;;;-145.69;100.00;72319.81;5075098;28;20202;-78
2022/07/07 02:53:22;;;;;;;7.80;2.50;;;;;;;-145.69;100.00;72329.78;5074998;28;20206;-79
2022/07/07 02:55:49;;;;;;;4.27;2.60;;;;;;;-145.69;100.00;72333.75;5074492;28;20250;-79
2022/07/07 02:58:19;;;;;;;4.93;2.73;;;;;;;-145.69;100.00;72321.81;5074705;28;20210;-79
2022/07/07 03:00:46;;;;;;;9.37;2.87;;;;;;;-145.69;100.00;72325.81;5074556;28;20232;-79
2022/07/07 03:03:13;;;;;;;4.20;2.60;;;;;;;-145.69;100.00;72329.78;5074591;28;20657;-79
2022/07/07 03:05:39;;;;;;;11.47;2.80;;;;;;;-145.69;100.00;72335.75;5074613;28;20202;-79
2022/07/07 03:08:07;;;;;;;4.67;2.70;;;;;;;-145.69;100.00;72335.75;5074326;28;20210;-79
2022/07/07 03:10:34;;;;;;;4.93;2.70;;;;;;;-145.69;100.00;72329.78;5074650;28;20203;-79
2022/07/07 03:13:01;;;;;;;6.43;3.13;;;;;;;-145.69;100.00;72329.78;5074455;28;20719;-79
2022/07/07 03:15:27;;;;;;;9.00;2.83;;;;;;;-145.69;100.00;72325.81;5074203;28;20280;-79
2022/07/07 03:17:55;;;;;;;8.57;2.50;;;;;;;-145.69;100.00;72333.75;5074245;28;20203;-79
2022/07/07 03:20:22;;;;;;;5.47;2.70;;;;;;;-145.69;100.00;72321.81;5072635;28;20198;-78
2022/07/07 03:22:49;;;;;;;7.77;2.87;;;;;;;-145.69;100.00;72317.84;5074236;28;20212;-80
2022/07/07 03:25:17;;;;;;;3.70;2.47;;;;;;;-145.69;100.00;72301.91;5074036;28;20650;-79
2022/07/07 03:27:43;;;;;;;4.60;2.30;;;;;;;-145.69;100.00;72293.94;5073759;28;20186;-79
2022/07/07 03:30:10;;;;;;;3.97;2.60;;;;;;;-145.69;100.00;72280.03;5073884;28;20194;-79
2022/07/07 03:32:37;;;;;;;5.10;2.40;;;;;;;-145.69;100.00;72274.06;5074341;28;20199;-79
2022/07/07 03:35:07;;;;;;;5.73;2.40;;;;;;;-145.69;100.00;72270.06;5074006;28;20223;-79
2022/07/07 03:37:34;;;;;;;2.93;2.03;;;;;;;-145.69;100.00;72258.13;5073804;28;20226;-80
2022/07/07 03:40:01;;;;;;;5.87;2.30;;;;;;;-145.69;100.00;72250.16;5073881;28;20199;-79
2022/07/07 03:42:29;;;;;;;2.73;2.10;;;;;;;-145.69;100.00;72254.16;5073705;28;20560;-79
2022/07/07 03:44:56;;;;;;;5.20;2.37;;;;;;;-145.69;100.00;72250.16;5074193;28;20260;-78
2022/07/07 03:47:22;;;;;;;5.23;2.30;;;;;;;-145.69;100.00;72238.22;5073895;28;20232;-79
2022/07/07 03:49:49;;;;;;;4.53;2.30;;;;;;;-145.69;100.00;72238.22;5073303;28;20235;-79
2022/07/07 03:52:16;;;;;;;3.63;2.33;;;;;;;-145.69;100.00;72236.22;5073756;28;20210;-79
2022/07/07 03:54:43;;;;;;;4.23;2.30;;;;;;;-145.69;100.00;72242.22;5073701;28;20241;-79
2022/07/07 03:57:09;;;;;;;6.37;2.10;;;;;;;-145.69;100.00;72244.19;5073608;28;20673;-79
2022/07/07 03:59:37;;;;;;;2.87;2.23;;;;;;;-145.69;100.00;72244.19;5073882;28;20203;-79
2022/07/07 04:02:04;;;;;;;6.87;2.33;;;;;;;-145.69;100.00;72262.09;5073438;28;20199;-79
2022/07/07 04:04:30;;;;;;;4.20;2.47;;;;;;;-145.69;100.00;72266.09;5073521;28;20194;-79
2022/07/07 04:06:57;;;;;;;3.20;2.23;;;;;;;-145.69;100.00;72250.16;5073529;28;20199;-78
2022/07/07 04:09:23;;;;;;;4.27;2.30;;;;;;;-145.69;100.00;72246.19;5073383;28;20202;-79
2022/07/07 04:11:50;;;;;;;3.43;2.23;;;;;;;-145.69;100.00;72234.25;5073241;28;20206;-79
2022/07/07 04:14:16;;;;;;;3.70;2.10;;;;;;;-145.69;100.00;72224.28;5072783;28;20438;-79
2022/07/07 04:16:44;;;;;;;4.80;2.83;;;;;;;-145.69;100.00;72214.34;5073360;28;20237;-78
2022/07/07 04:19:10;;;;;;;6.50;2.63;;;;;;;-145.69;100.00;72206.38;5073283;28;20210;-79
2022/07/07 04:21:37;;;;;;;4.07;2.27;;;;;;;-145.69;100.00;72202.41;5072811;28;20267;-79
2022/07/07 04:24:04;;;;;;;4.23;2.33;;;;;;;-145.69;100.00;72202.41;5072915;28;20199;-79
2022/07/07 04:26:30;;;;;;;17.10;2.70;;;;;;;-145.69;100.00;72196.44;5053071;28;20677;-79
2022/07/07 04:28:57;;;;;;;5.30;2.17;;;;;;;-145.69;100.00;72190.47;5053135;28;20203;-79
2022/07/07 04:31:23;;;;;;;27.23;2.73;;;;;;;-145.69;100.00;72186.47;5053136;28;20203;-78
2022/07/07 04:33:51;;;;;;;10.40;2.67;;;;;;;-145.69;100.00;72182.50;5053060;28;20203;-79
2022/07/07 04:36:17;;;;;;;7.23;2.57;;;;;;;-145.69;100.00;72180.50;5052932;28;20234;-79
2022/07/07 04:38:43;;;;;;;6.43;2.23;;;;;;;-145.69;100.00;72172.53;5072976;28;20203;-79
2022/07/07 04:41:10;;;;;;;3.70;2.00;;;;;;;-145.69;100.00;72168.56;5073253;28;20194;-77
2022/07/07 04:43:36;;;;;;;3.63;2.10;;;;;;;-145.69;100.00;72170.56;5073118;28;20207;-79
2022/07/07 04:46:03;;;;;;;3.03;1.87;;;;;;;-145.69;100.00;72186.47;5072896;28;20202;-79
2022/07/07 04:48:29;;;;;;;3.37;2.07;;;;;;;-145.69;100.00;72190.47;5071715;28;20234;-79
2022/07/07 04:50:57;;;;;;;5.13;2.23;;;;;;;-145.69;100.00;72188.47;5072839;28;20199;-78
2022/07/07 04:53:23;;;;;;;5.07;2.37;;;;;;;-145.69;100.00;72184.50;5072675;28;20202;-79
2022/07/07 04:55:50;;;;;;;11.43;2.20;;;;;;;-145.69;100.00;72178.53;5072888;28;20234;-79
2022/07/07 04:58:16;;;;;;;2.27;1.93;;;;;;;-145.69;100.00;72166.56;5072847;28;20194;-79
2022/07/07 05:00:42;;;;;;;6.10;2.07;;;;;;;-145.69;100.00;72166.56;5072825;28;20281;-79
2022/07/07 05:03:09;;;;;;;6.30;2.50;;;;;;;-145.69;100.00;72158.63;5072353;28;20210;-79
2022/07/07 05:05:35;;;;;;;4.80;2.00;;;;;;;-145.69;100.00;72146.69;5072747;28;20205;-78
2022/07/07 05:08:03;;;;;;;7.23;2.17;;;;;;;-145.69;100.00;72122.78;5072597;28;20206;-78
2022/07/07 05:10:30;;;;;;;7.33;2.27;;;;;;;-145.69;100.00;72100.91;5072160;28;20681;-78
2022/07/07 05:12:57;;;;;;;6.77;2.10;;;;;;;-145.69;100.00;72086.97;5071308;28;20202;-78
2022/07/07 05:15:23;;;;;;;5.03;2.27;;;;;;;-145.69;100.00;72059.09;5072277;28;20223;-77
2022/07/07 05:17:49;;;;;;;3.10;2.00;;;;;;;-145.69;100.00;72029.25;5072484;28;20566;-78
2022/07/07 05:20:16;;;;;;;4.53;2.17;;;;;;;-145.69;100.00;72021.28;5072157;28;20191;-78
2022/07/07 05:22:42;;;;;;;2.53;1.60;;;;;;;-145.69;100.00;72015.31;5072552;28;20194;-78
2022/07/07 05:25:10;;;;;;;4.90;1.80;;;;;;;-145.69;100.00;72001.38;5072280;28;20121;-79
2022/07/07 05:27:37;;;;;;;2.17;1.63;;;;;;;-145.69;100.00;71983.47;5070934;28;20199;-79
2022/07/07 05:30:05;;;;;;;5.50;1.70;;;;;;;-145.69;100.00;71963.56;5070450;28;20230;-78
2022/07/07 05:32:31;;;;;;;4.20;2.20;;;;;;;-145.69;100.00;71951.63;5071621;28;20207;-78
2022/07/07 05:34:57;;;;;;;5.23;2.10;;;;;;;-145.69;100.00;71925.75;5074127;28;20207;-78
2022/07/07 05:37:24;;;;;;;3.80;1.70;;;;;;;-145.69;100.00;71899.88;5074210;28;20195;-79
2022/07/07 05:39:50;;;;;;;3.13;1.80;;;;;;;-145.69;100.00;71874.03;5074329;28;20203;-78
2022/07/07 05:42:18;;;;;;;4.20;1.60;;;;;;;-145.69;100.00;71848.16;5075769;28;20203;-78
2022/07/07 05:44:45;;;;;;;2.27;1.50;;;;;;;-145.69;100.00;71784.47;5076191;28;20195;-79
2022/07/07 05:47:11;;;;;;;3.00;1.20;;;;;;;-145.69;100.00;71684.97;5076128;28;20203;-79
2022/07/07 05:49:38;;;;;;;6.43;1.23;;;;;;;-145.69;93.56;71585.47;5075573;28;20226;-78
2022/07/07 05:52:05;;;;;;;3.47;1.15;;;;;;;-145.69;90.11;71454.13;5076381;28;20206;-79
2022/07/07 05:54:31;;;;;;;2.35;1.15;;;;;;;-145.69;83.19;71332.75;5076058;28;20256;-79
2022/07/07 05:56:58;;;;;;;3.78;1.02;;;;;;;-145.69;76.85;71239.22;5075933;28;20230;-79
2022/07/07 05:59:26;;;;;;;2.85;0.85;;;;;;;-145.69;64.19;71147.69;5075909;28;20198;-79
2022/07/07 06:01:52;;;;;;;2.83;0.88;;;;;;;-145.69;57.92;71048.22;5074779;28;20442;-79
2022/07/07 06:04:19;;;;;;;3.35;0.80;;;;;;;-145.69;58.66;70990.50;5075632;28;20206;-79
2022/07/07 06:06:45;;;;;;;2.40;1.00;;;;;;;-145.69;57.60;70976.59;5075863;28;20207;-79
2022/07/07 06:09:11;;;;;;;3.25;1.10;;;;;;;-145.69;53.14;71044.22;5075553;28;20206;-79
2022/07/07 06:11:38;;;;;;;1.60;0.55;;;;;;;-145.69;57.85;71060.16;5075558;28;20658;-79
2022/07/07 06:14:05;;;;;;;7.25;0.77;;;;;;;-145.69;62.71;71135.75;5075471;28;20203;-79
2022/07/07 06:16:42;;;;;;;3.20;1.00;;;;;;;-145.69;56.04;71137.75;5075450;28;20697;-79
2022/07/07 06:19:10;;;;;;;1.23;0.80;;;;;;;-145.69;61.25;71175.56;5075686;28;20198;-79
2022/07/07 06:21:37;;;;;;;5.47;1.42;;;;;;;-145.69;61.38;71326.78;5075676;28;20233;-79
2022/07/07 06:24:04;;;;;;;3.40;1.25;;;;;;;-145.69;63.56;71350.66;5075467;28;20611;-79
2022/07/07 06:26:30;;;;;;;3.47;0.90;;;;;;;-145.69;63.25;71384.47;5075224;28;20203;-79
2022/07/07 06:28:57;;;;;;;6.90;1.13;;;;;;;-145.69;62.96;71362.59;5075327;28;20195;-79
2022/07/07 06:31:23;;;;;;;3.75;1.10;;;;;;;-145.69;62.65;71386.47;5075403;28;20665;-79
2022/07/07 06:33:51;;;;;;;3.63;0.80;;;;;;;-145.69;65.13;71374.53;5075119;28;20673;-79
2022/07/07 06:36:18;;;;;;;5.93;0.98;;;;;;;-145.69;66.28;71302.91;5075264;28;20230;-79
2022/07/07 06:38:44;;;;;;;3.72;1.40;;;;;;;-145.69;64.74;71368.56;5075127;28;20206;-79
2022/07/07 06:41:11;;;;;;;4.93;1.02;;;;;;;-145.69;65.66;71342.69;5074823;28;20233;-78
2022/07/07 06:43:37;;;;;;;5.43;1.10;;;;;;;-145.69;65.23;71338.72;5073791;28;20203;-77
2022/07/07 06:46:04;;;;;;;7.20;1.40;;;;;;;-145.69;67.56;71267.09;5072182;28;20206;-79
2022/07/07 06:48:30;;;;;;;7.65;1.42;;;;;;;-145.69;65.48;71302.91;5073816;28;20684;-77
2022/07/07 06:50:58;;;;;;;6.75;1.42;;;;;;;-145.69;61.19;71352.66;5074430;28;20206;-78
2022/07/07 06:53:25;;;;;;;4.20;1.20;;;;;;;-145.69;62.49;71386.47;5074947;28;20578;-76
2022/07/07 06:55:51;;;;;;;5.03;1.20;;;;;;;-145.69;68.80;71376.53;5073893;28;20234;-76
2022/07/07 06:58:18;;;;;;;11.68;1.48;;;;;;;-145.69;64.75;71392.44;5074308;28;20202;-76
2022/07/07 07:00:44;;;;;;;8.05;1.42;;;;;;;-145.69;65.86;71370.56;5074446;28;20222;-77
2022/07/07 07:03:11;;;;;;;5.00;1.23;;;;;;;-145.69;63.97;71362.59;5073426;28;20220;-76
2022/07/07 07:05:37;;;;;;;6.00;1.20;;;;;;;-145.69;62.87;71334.75;5074640;28;20205;-76
2022/07/07 07:08:05;;;;;;;2.45;1.30;;;;;;;-145.69;67.53;71304.91;5074458;28;20584;-77
2022/07/07 07:10:32;;;;;;;3.10;1.27;;;;;;;-145.69;62.60;71267.09;5074362;28;20199;-76
2022/07/07 07:12:58;;;;;;;6.82;1.50;;;;;;;-145.69;63.70;71316.84;5074009;28;20210;-77
2022/07/07 07:15:25;;;;;;;3.45;1.20;;;;;;;-145.69;64.39;71310.84;5074499;28;20195;-76
2022/07/07 07:17:51;;;;;;;3.38;1.30;;;;;;;-145.69;62.26;71294.94;5074342;28;20661;-76
2022/07/07 07:20:18;;;;;;;3.25;1.38;;;;;;;-145.69;63.56;71271.06;5074403;28;20195;-76
2022/07/07 07:22:45;;;;;;;4.47;1.67;;;;;;;-145.69;63.30;71273.06;5073914;28;20199;-76
2022/07/07 07:25:15;;;;;;;3.08;1.30;;;;;;;-145.69;63.19;71269.06;5073920;28;20197;-75
2022/07/07 07:27:42;;;;;;;1.35;0.95;;;;;;;-145.69;60.63;71247.19;5073608;28;20545;-77
2022/07/07 07:30:09;;;;;;;4.55;1.30;;;;;;;-145.69;62.13;71215.34;5073974;28;20650;-76
2022/07/07 07:32:35;;;;;;;5.82;1.65;;;;;;;-145.69;59.40;71223.31;5074221;28;20199;-76
2022/07/07 07:35:02;;;;;;;3.97;1.13;;;;;;;-145.69;60.51;71183.50;5073176;28;20207;-77
2022/07/07 07:37:28;;;;;;;8.32;1.63;;;;;;;-145.69;61.14;71193.47;5072492;28;20218;-77
2022/07/07 07:39:55;;;;;;;5.90;1.38;;;;;;;-145.69;60.11;71237.25;5073403;28;20199;-76
2022/07/07 07:42:23;;;;;;;4.13;1.10;;;;;;;-145.69;59.86;71235.25;5073079;28;20611;-75
2022/07/07 07:47:33;;;;;;;2.75;1.45;;;;;;;-145.69;60.74;71219.34;5073242;28;20652;-76
2022/07/07 07:49:59;;;;;;;4.45;1.52;;;;;;;-145.69;61.44;71207.38;5072756;28;20632;-76
2022/07/07 07:52:26;;;;;;;5.28;1.10;;;;;;;-145.69;62.31;71201.41;5072654;28;20206;-76
2022/07/07 07:54:52;;;;;;;3.97;1.40;;;;;;;-145.69;64.46;71203.41;5072185;28;20595;-77
2022/07/07 07:57:19;;;;;;;5.82;1.40;;;;;;;-145.69;63.34;71219.34;5072915;28;20320;-77
2022/07/07 07:59:47;;;;;;;6.70;1.65;;;;;;;-145.69;62.01;71229.28;5073647;28;20205;-78
2022/07/07 08:02:13;;;;;;;4.80;1.75;;;;;;;-145.69;62.09;71223.31;5073240;28;20195;-77
2022/07/07 08:04:40;;;;;;;7.15;1.45;;;;;;;-145.69;63.29;71177.53;5073568;28;20225;-77
2022/07/07 08:07:09;;;;;;;7.15;1.40;;;;;;;-145.69;61.74;71207.38;5072387;28;20203;-77
2022/07/07 08:09:36;;;;;;;2.15;1.30;;;;;;;-145.69;61.17;71203.41;5072472;28;20218;-77
2022/07/07 08:12:02;;;;;;;4.75;1.50;;;;;;;-145.69;61.16;71215.34;5072639;28;20315;-78
2022/07/07 08:14:29;;;;;;;10.25;1.60;;;;;;;-145.69;60.21;71193.47;5073355;28;20209;-78
2022/07/07 08:16:56;;;;;;;5.20;1.30;;;;;;;-145.69;62.35;71239.22;5072796;28;20681;-79
2022/07/07 08:19:23;;;;;;;4.57;1.40;;;;;;;-145.69;62.78;71219.34;5072657;28;20464;-78
2022/07/07 08:21:50;;;;;;;4.20;1.65;;;;;;;-145.69;62.26;71223.31;5073215;28;20202;-78
2022/07/07 08:24:18;;;;;;;3.65;1.50;;;;;;;-145.69;62.81;71227.28;5072532;28;20202;-79
2022/07/07 08:26:44;;;;;;;4.88;1.33;;;;;;;-145.69;62.92;71227.28;5072858;28;20201;-79
2022/07/07 08:29:11;;;;;;;7.00;1.40;;;;;;;-145.69;65.69;71223.31;5072821;28;20400;-79
2022/07/07 08:31:37;;;;;;;6.32;1.38;;;;;;;-145.69;61.66;71229.28;5071565;28;20203;-76
2022/07/07 08:34:07;;;;;;;3.72;1.30;;;;;;;-145.69;63.49;71255.16;5072653;28;20199;-79
2022/07/07 08:36:33;;;;;;;7.25;1.63;;;;;;;-145.69;63.34;71255.16;5070072;28;20222;-79
2022/07/07 08:39:02;;;;;;;4.13;1.45;;;;;;;-145.69;65.31;71271.06;5072857;28;20199;-75
2022/07/07 08:41:29;;;;;;;4.10;1.25;;;;;;;-145.69;64.21;71245.19;5073008;28;20202;-77
2022/07/07 08:43:56;;;;;;;3.90;1.67;;;;;;;-145.69;65.86;71300.91;5072751;28;20195;-77
2022/07/07 08:46:23;;;;;;;4.97;1.70;;;;;;;-145.69;68.05;71279.03;5072807;28;20260;-76
2022/07/07 08:48:50;;;;;;;6.75;1.80;;;;;;;-145.69;67.11;71306.88;5072394;28;20230;-77
2022/07/07 08:51:18;;;;;;;4.80;1.38;;;;;;;-145.69;69.08;71318.81;5073043;28;20199;-76
2022/07/07 08:53:48;;;;;;;4.50;1.70;;;;;;;-145.69;67.65;71308.88;5072215;28;20194;-76
2022/07/07 08:56:16;;;;;;;5.03;1.60;;;;;;;-145.69;68.27;71286.97;5072561;28;20195;-77
2022/07/07 08:58:43;;;;;;;3.25;1.80;;;;;;;-145.69;65.73;71312.84;5072304;28;20204;-77
2022/07/07 09:01:10;;;;;;;3.53;1.42;;;;;;;-145.69;66.06;71316.84;5072086;28;20203;-78
2022/07/07 09:03:36;;;;;;;9.40;1.65;;;;;;;-145.69;66.20;71326.78;5072576;28;20210;-79
2022/07/07 09:06:03;;;;;;;5.10;1.67;;;;;;;-145.69;67.06;71338.72;5072712;28;20206;-77
2022/07/07 09:08:33;;;;;;;3.60;1.30;;;;;;;-145.69;71.17;71346.69;5076990;28;20238;-77
2022/07/07 09:11:01;;;;;;;4.15;1.38;;;;;;;-145.69;70.84;71358.63;5076794;28;20257;-76
2022/07/07 09:13:30;;;;;;;5.43;1.45;;;;;;;-145.69;73.33;71354.63;5076506;28;20664;-77
2022/07/07 09:16:01;;;;;;;1.98;1.40;;;;;;;-145.69;69.53;71372.53;5076550;28;20203;-77
2022/07/07 09:18:31;;;;;;;5.43;1.70;;;;;;;-145.69;69.36;71366.56;5076554;28;20259;-77
2022/07/07 09:20:58;;;;;;;8.68;1.55;;;;;;;-145.69;74.36;71368.56;5076683;28;20653;-76
2022/07/07 09:23:24;;;;;;;7.13;2.05;;;;;;;-145.69;70.54;71364.59;5076642;28;20203;-78
2022/07/07 09:25:52;;;;;;;3.45;1.42;;;;;;;-145.69;69.29;71364.59;5075652;28;20199;-76
2022/07/07 09:28:21;;;;;;;3.03;1.42;;;;;;;-145.69;71.92;71366.56;5075371;28;20222;-79
2022/07/07 09:30:49;;;;;;;2.42;1.42;;;;;;;-145.69;75.50;71348.66;5075410;28;20197;-79
2022/07/07 09:33:19;;;;;;;3.58;1.30;;;;;;;-145.69;70.58;71350.66;5076564;28;20230;-79
2022/07/07 09:38:34;;;;;;;3.88;1.50;;;;;;;-145.69;73.00;71344.69;5076009;28;20343;-79
2022/07/07 09:41:04;;;;;;;2.78;1.35;;;;;;;-145.69;72.20;71358.63;5075613;28;20221;-77
2022/07/07 09:43:33;;;;;;;8.63;1.42;;;;;;;-145.69;70.54;71350.66;5075049;28;20708;-78
2022/07/07 09:46:10;;;;;;;2.60;1.27;;;;;;;-145.69;69.88;71358.63;5075693;28;20205;-79
2022/07/07 09:48:38;;;;;;;4.10;1.67;;;;;;;-145.69;70.40;71332.75;5075249;28;20226;-78
2022/07/07 09:51:16;;;;;;;3.75;1.30;;;;;;;-145.69;71.99;71318.81;5075018;28;20665;-78
2022/07/07 09:54:03;;;;;;;3.75;1.55;;;;;;;-145.69;68.27;71251.16;5073943;28;20217;-79
2022/07/07 09:56:33;;;;;;;4.47;1.45;;;;;;;-145.69;70.17;71199.44;5075708;28;20199;-80
2022/07/07 09:59:00;;;;;;;4.72;1.20;;;;;;;-145.69;66.04;71163.63;5075951;28;20202;-79
2022/07/07 10:01:29;;;;;;;3.65;1.50;;;;;;;-145.69;63.62;71149.69;5074734;28;20286;-78
2022/07/07 10:03:58;;;;;;;3.70;1.30;;;;;;;-145.69;63.35;71157.66;5075293;28;20317;-77
2022/07/07 10:06:27;;;;;;;2.95;1.30;;;;;;;-145.69;61.01;71151.69;5074563;28;20207;-78
2022/07/07 10:08:57;;;;;;;5.72;1.35;;;;;;;-145.69;64.36;71133.78;5075547;28;20236;-78
2022/07/07 10:11:30;;;;;;;2.25;1.20;;;;;;;-145.69;63.76;71135.75;5075498;28;20550;-79
2022/07/07 10:14:08;;;;;;;2.05;1.30;;;;;;;-145.69;70.35;71121.84;5075397;28;20619;-76
2022/07/07 10:16:36;;;;;;;2.20;1.40;;;;;;;-145.69;65.42;71121.84;5075202;28;20198;-79
2022/07/07 10:19:03;;;;;;;7.32;1.55;;;;;;;-145.69;62.87;71084.03;5074389;28;20692;-76
2022/07/07 10:21:32;;;;;;;3.50;1.52;;;;;;;-145.69;61.42;71020.34;5055455;28;20199;-77
2022/07/07 10:24:01;;;;;;;2.92;1.38;;;;;;;-145.69;62.71;70952.72;5055308;28;20661;-79
2022/07/07 10:26:36;;;;;;;4.85;1.35;;;;;;;-145.69;57.58;71032.28;5055511;28;20195;-81
2022/07/07 10:29:05;;;;;;;4.97;1.27;;;;;;;-145.69;60.86;71064.13;5055421;28;20204;-81
2022/07/07 10:31:32;;;;;;;3.83;1.50;;;;;;;-145.69;60.64;71097.97;5058297;28;20191;-79
2022/07/07 10:34:01;;;;;;;5.97;1.63;;;;;;;-145.69;60.85;71151.69;5075077;28;20198;-78
2022/07/07 10:36:28;;;;;;;4.95;1.70;;;;;;;-145.69;62.75;71151.69;5075105;28;20199;-78
2022/07/07 10:39:00;;;;;;;6.45;1.30;;;;;;;-145.69;60.03;71111.88;5072637;28;20227;-80
2022/07/07 10:41:26;;;;;;;3.83;1.25;;;;;;;-145.69;59.81;71115.88;5075022;28;20199;-80
2022/07/07 10:44:07;;;;;;;3.70;1.35;;;;;;;-145.69;63.11;71163.63;5074391;28;20269;-84
2022/07/07 10:46:35;;;;;;;4.75;1.30;;;;;;;-145.69;64.80;71231.28;5064979;28;20576;-80
2022/07/07 10:49:12;;;;;;;3.47;1.90;;;;;;;-145.69;66.24;71249.19;5075495;28;20233;-81
2022/07/07 10:51:55;;;;;;;5.38;1.45;;;;;;;-145.69;67.64;71281.00;5074871;28;20681;-81
2022/07/07 10:54:36;;;;;;;3.72;1.50;;;;;;;-145.69;69.50;71271.06;5074477;28;20213;-80
2022/07/07 10:57:17;;;;;;;3.38;1.30;;;;;;;-145.69;69.77;71275.03;5058335;28;20265;-80
2022/07/07 11:00:09;;;;;;;2.90;1.40;;;;;;;-145.69;67.86;71255.16;5054771;28;20203;-78
2022/07/07 11:02:38;;;;;;;6.57;1.83;;;;;;;-145.69;67.52;71263.09;5053536;28;20693;-80
2022/07/07 11:05:25;;;;;;;3.95;1.65;;;;;;;-145.69;69.87;71279.03;5054680;28;20195;-79
2022/07/07 11:08:12;;;;;;;6.97;1.42;;;;;;;-145.69;71.11;71279.03;5060996;28;20195;-78
2022/07/07 11:10:54;;;;;;;3.05;1.30;;;;;;;-145.69;69.69;71290.97;5074616;28;20207;-79
2022/07/07 11:13:23;;;;;;;7.30;1.50;;;;;;;-145.69;69.84;71269.06;5074479;28;20206;-79
2022/07/07 11:15:52;;;;;;;6.13;1.50;;;;;;;-145.69;68.55;71209.38;5074510;28;20256;-79
2022/07/07 11:18:20;;;;;;;4.25;1.55;;;;;;;-145.69;67.15;71167.59;5074354;28;20230;-79
2022/07/07 11:21:00;;;;;;;6.15;1.17;;;;;;;-145.69;68.36;71105.91;5074035;28;20207;-80